Time;durP1;ratioP1;P1;durP2;ratioP2;P2;SDS_P1;SDS_P2;PMS_P1;PMS_P2;Temp;Humidity;BMP_temperature;BMP_pressure;BME280_temperature;BME280_humidity;BME280_pressure;Samples;Min_cycle;Max_cycle;Signal;HPM_P1;HPM_P2
2021/05/24 00:02:13;;;;;;;5.20;4.47;;;;;;;9.25;95.66;99207.34;5054455;28;20285;-73
2021/05/24 00:04:40;;;;;;;6.95;4.32;;;;;;;9.17;95.20;99207.78;5053807;28;20244;-74
2021/05/24 00:07:07;;;;;;;5.60;4.22;;;;;;;9.17;95.19;99202.44;5054532;28;20629;-74
2021/05/24 00:09:33;;;;;;;4.80;4.40;;;;;;;9.11;95.72;99205.47;5054097;28;20238;-74
2021/05/24 00:12:02;;;;;;;6.50;4.43;;;;;;;9.02;95.81;99201.47;5054002;28;20648;-75
2021/05/24 00:14:29;;;;;;;4.97;4.50;;;;;;;9.08;95.33;99197.59;5054198;28;20194;-74
2021/05/24 00:16:55;;;;;;;4.95;4.35;;;;;;;8.91;96.19;99191.41;5054163;28;20263;-74
2021/05/24 00:19:21;;;;;;;4.20;3.75;;;;;;;8.80;97.27;99183.09;5054131;28;20703;-73
2021/05/24 00:21:48;;;;;;;7.63;4.20;;;;;;;8.70;98.00;99185.41;5053961;28;20202;-73
2021/05/24 00:24:15;;;;;;;9.18;4.55;;;;;;;8.75;98.01;99177.09;5053852;28;20274;-75
2021/05/24 00:26:41;;;;;;;5.70;5.03;;;;;;;8.75;97.82;99177.09;5053923;28;20292;-74
2021/05/24 00:29:07;;;;;;;9.65;5.45;;;;;;;8.80;97.52;99185.78;5053066;28;20655;-75
2021/05/24 00:31:33;;;;;;;4.80;4.28;;;;;;;8.85;97.04;99186.38;5054055;28;20596;-73
2021/05/24 00:33:59;;;;;;;6.78;4.10;;;;;;;8.88;96.67;99188.88;5053508;28;20288;-75
2021/05/24 00:36:26;;;;;;;7.65;4.85;;;;;;;8.76;96.75;99187.75;5053596;28;20189;-75
2021/05/24 00:38:52;;;;;;;5.45;4.90;;;;;;;8.72;96.78;99182.66;5053602;28;20318;-74
2021/05/24 00:41:19;;;;;;;7.13;5.05;;;;;;;8.68;96.94;99178.41;5053995;28;20270;-75
2021/05/24 00:43:45;;;;;;;9.80;6.05;;;;;;;8.62;97.51;99182.31;5054052;28;20240;-72
2021/05/24 00:46:11;;;;;;;8.63;4.80;;;;;;;8.66;97.45;99169.56;5053622;28;20206;-74
2021/05/24 00:48:37;;;;;;;8.50;6.13;;;;;;;8.67;96.96;99179.38;5053331;28;20209;-75
2021/05/24 00:51:03;;;;;;;7.40;5.82;;;;;;;8.67;96.62;99182.91;5053437;28;20279;-74
2021/05/24 00:53:30;;;;;;;4.97;4.00;;;;;;;8.51;97.32;99180.22;5053315;28;20205;-74
2021/05/24 00:55:57;;;;;;;5.13;3.70;;;;;;;8.74;96.86;99172.69;5053585;28;20595;-74
2021/05/24 00:58:23;;;;;;;5.95;3.95;;;;;;;8.76;95.75;99170.78;5053443;28;20269;-74
2021/05/24 01:00:50;;;;;;;4.97;3.60;;;;;;;8.75;95.52;99169.03;5053533;28;20198;-74
2021/05/24 01:03:16;;;;;;;4.20;3.75;;;;;;;8.61;95.86;99171.66;5053510;28;20611;-74
2021/05/24 01:05:44;;;;;;;5.88;4.50;;;;;;;8.45;96.50;99167.16;5053593;28;20222;-76
2021/05/24 01:08:12;;;;;;;5.90;4.65;;;;;;;8.33;97.34;99162.47;5053379;28;20268;-74
2021/05/24 01:10:40;;;;;;;5.53;4.40;;;;;;;8.43;97.16;99155.66;5053600;28;20192;-73
2021/05/24 01:13:09;;;;;;;4.75;4.35;;;;;;;8.32;96.93;99141.94;5053891;28;20212;-74
2021/05/24 01:15:37;;;;;;;5.18;3.65;;;;;;;8.31;97.79;99148.25;5053318;28;20255;-74
2021/05/24 01:18:03;;;;;;;5.65;3.75;;;;;;;8.32;97.22;99149.97;5053349;28;20667;-74
2021/05/24 01:20:29;;;;;;;4.95;4.00;;;;;;;8.44;97.06;99141.28;5053086;28;20222;-75
2021/05/24 01:23:07;;;;;;;7.65;4.05;;;;;;;8.51;96.09;99139.13;5053466;28;20293;-73
2021/05/24 01:25:36;;;;;;;3.58;3.25;;;;;;;8.39;96.52;99137.97;5053183;28;20211;-74
2021/05/24 01:28:03;;;;;;;4.15;3.38;;;;;;;8.47;96.35;99133.06;5052746;28;20279;-74
2021/05/24 01:30:30;;;;;;;4.20;3.33;;;;;;;8.34;96.42;99126.63;5053487;28;20206;-74
2021/05/24 01:32:57;;;;;;;4.88;3.75;;;;;;;8.29;96.59;99116.16;5053134;28;20284;-73
2021/05/24 01:35:23;;;;;;;9.93;3.70;;;;;;;8.11;97.30;99112.69;5052963;28;20230;-73
2021/05/24 01:37:49;;;;;;;8.63;3.85;;;;;;;7.92;98.28;99110.16;5053175;28;20221;-74
2021/05/24 01:40:17;;;;;;;5.35;3.67;;;;;;;7.98;98.42;99108.09;5053468;28;20253;-74
2021/05/24 01:42:44;;;;;;;5.80;4.10;;;;;;;7.90;99.03;99095.97;5057131;28;20223;-76
2021/05/24 01:45:12;;;;;;;4.15;3.58;;;;;;;7.95;98.70;99098.41;5057095;28;20666;-73
2021/05/24 01:47:38;;;;;;;4.75;3.70;;;;;;;7.93;98.56;99093.13;5057259;28;20532;-74
2021/05/24 01:50:06;;;;;;;5.22;4.57;;;;;;;7.80;99.37;99086.72;5056887;28;20347;-74
2021/05/24 01:52:32;;;;;;;8.23;4.32;;;;;;;7.81;99.46;99084.91;5056500;28;20288;-74
2021/05/24 01:54:58;;;;;;;7.75;3.85;;;;;;;7.76;99.43;99085.16;5056560;28;20225;-74
2021/05/24 01:57:27;;;;;;;4.75;3.75;;;;;;;7.77;99.45;99084.19;5056808;28;20217;-75
2021/05/24 01:59:55;;;;;;;5.03;3.60;;;;;;;7.85;98.84;99083.81;5056319;28;20197;-73
2021/05/24 02:02:21;;;;;;;4.70;3.88;;;;;;;7.98;98.67;99092.00;5056659;28;20224;-74
2021/05/24 02:04:47;;;;;;;5.40;3.58;;;;;;;7.98;97.83;99084.81;5056626;28;20205;-75
2021/05/24 02:07:14;;;;;;;3.53;3.22;;;;;;;7.87;98.11;99079.22;5056341;28;20190;-74
2021/05/24 02:09:40;;;;;;;5.60;4.47;;;;;;;7.85;98.41;99083.81;5056117;28;20620;-73
2021/05/24 02:12:07;;;;;;;5.10;3.60;;;;;;;7.74;98.65;99079.03;5056585;28;20259;-74
2021/05/24 02:14:34;;;;;;;8.10;4.10;;;;;;;7.76;99.38;99077.13;5056111;28;20224;-74
2021/05/24 02:17:00;;;;;;;3.80;3.50;;;;;;;7.75;99.15;99078.06;5056591;28;20700;-74
2021/05/24 02:19:26;;;;;;;3.50;3.10;;;;;;;7.68;99.19;99068.63;5056528;28;20188;-74
2021/05/24 02:21:52;;;;;;;3.90;3.60;;;;;;;7.61;99.76;99068.09;5056419;28;20516;-73
2021/05/24 02:24:19;;;;;;;3.30;3.05;;;;;;;7.66;99.92;99074.06;5056278;28;20281;-75
2021/05/24 02:26:45;;;;;;;5.95;3.28;;;;;;;7.66;100.00;99068.69;5056043;28;20219;-75
2021/05/24 02:29:12;;;;;;;6.18;3.30;;;;;;;7.72;99.37;99068.38;5056209;28;20563;-74
2021/05/24 02:31:39;;;;;;;3.63;3.20;;;;;;;7.73;98.83;99075.47;5056233;28;20262;-74
2021/05/24 02:34:06;;;;;;;7.78;3.75;;;;;;;7.68;98.75;99082.88;5056490;28;20276;-75
2021/05/24 02:36:33;;;;;;;4.97;3.20;;;;;;;7.76;98.08;99081.63;5055630;28;20193;-74
2021/05/24 02:38:59;;;;;;;4.20;3.75;;;;;;;7.77;97.52;99075.31;5056368;28;20585;-74
2021/05/24 02:41:26;;;;;;;3.55;3.10;;;;;;;7.63;97.92;99084.97;5056163;28;20200;-73
2021/05/24 02:43:52;;;;;;;4.88;3.50;;;;;;;7.45;98.88;99075.25;5056040;28;20612;-75
2021/05/24 02:46:19;;;;;;;5.18;3.35;;;;;;;7.48;99.07;99081.31;5055998;28;20289;-75
2021/05/24 02:48:46;;;;;;;3.80;3.05;;;;;;;7.36;99.74;99073.06;5056354;28;20681;-74
2021/05/24 02:51:12;;;;;;;3.67;2.95;;;;;;;7.34;99.95;99064.22;5055428;28;20262;-73
2021/05/24 02:53:38;;;;;;;6.03;4.05;;;;;;;7.22;100.00;99065.75;5055445;28;20224;-74
2021/05/24 02:56:04;;;;;;;4.25;3.55;;;;;;;7.32;100.00;99075.88;5055467;28;20221;-72
2021/05/24 02:58:31;;;;;;;4.90;3.20;;;;;;;7.37;99.57;99061.38;5055268;28;20200;-74
2021/05/24 03:00:57;;;;;;;3.95;3.30;;;;;;;7.39;99.43;99064.84;5055953;28;20290;-72
2021/05/24 03:03:24;;;;;;;3.67;3.03;;;;;;;7.33;99.82;99068.72;5055568;28;20212;-74
2021/05/24 03:05:51;;;;;;;4.05;3.38;;;;;;;7.28;100.00;99050.22;5055240;28;20202;-74
2021/05/24 03:08:17;;;;;;;5.45;2.90;;;;;;;7.26;100.00;99045.91;5055136;28;20188;-73
2021/05/24 03:10:43;;;;;;;2.90;2.60;;;;;;;7.29;99.96;99051.09;5055034;28;20233;-72
2021/05/24 03:13:09;;;;;;;3.42;3.10;;;;;;;7.16;100.00;99040.16;5055511;28;20596;-73
2021/05/24 03:15:36;;;;;;;4.85;3.53;;;;;;;7.14;100.00;99042.03;5055212;28;20217;-74
2021/05/24 03:18:02;;;;;;;3.80;2.90;;;;;;;7.18;100.00;99048.97;5055748;28;20212;-75
2021/05/24 03:20:28;;;;;;;4.03;3.45;;;;;;;7.30;99.87;99044.78;5055245;28;20269;-74
2021/05/24 03:22:55;;;;;;;3.33;3.00;;;;;;;7.23;99.34;99046.91;5055327;28;20296;-74
2021/05/24 03:25:21;;;;;;;3.40;3.10;;;;;;;7.20;99.73;99049.75;5054953;28;20288;-75
2021/05/24 03:27:48;;;;;;;5.15;3.25;;;;;;;7.27;99.90;99042.28;5055106;28;20692;-75
2021/05/24 03:30:16;;;;;;;8.15;3.50;;;;;;;7.30;99.25;99040.31;5054914;28;20579;-74
2021/05/24 03:32:42;;;;;;;3.42;3.13;;;;;;;7.32;99.25;99049.09;5054683;28;20190;-76
2021/05/24 03:35:09;;;;;;;3.55;3.25;;;;;;;7.27;98.98;99035.09;5054636;28;20287;-75
2021/05/24 03:37:36;;;;;;;5.50;3.53;;;;;;;6.98;99.74;99039.31;5054424;28;20216;-75
2021/05/24 03:40:04;;;;;;;4.90;3.28;;;;;;;6.86;100.00;99039.97;5054340;28;20778;-72
2021/05/24 03:42:30;;;;;;;5.25;3.72;;;;;;;6.94;100.00;99036.88;5054670;28;20264;-72
2021/05/24 03:44:56;;;;;;;4.07;3.67;;;;;;;6.86;100.00;99032.78;5054149;28;20273;-74
2021/05/24 03:47:22;;;;;;;4.22;3.05;;;;;;;6.91;100.00;99032.56;5054884;28;20296;-74
2021/05/24 03:49:49;;;;;;;4.43;3.35;;;;;;;6.99;100.00;99032.19;5054744;28;20658;-74
2021/05/24 03:52:16;;;;;;;3.58;2.67;;;;;;;7.03;100.00;99028.34;5054685;28;20194;-75
2021/05/24 03:54:42;;;;;;;3.95;3.15;;;;;;;6.97;99.74;99031.38;5055055;28;20296;-75
2021/05/24 03:57:11;;;;;;;4.72;3.33;;;;;;;7.01;100.00;99024.91;5054421;28;20196;-73
2021/05/24 03:59:37;;;;;;;5.78;3.50;;;;;;;6.99;100.00;99026.81;5054103;28;20197;-74
2021/05/24 04:02:03;;;;;;;3.60;3.30;;;;;;;6.81;100.00;99031.31;5054371;28;20277;-75
2021/05/24 04:04:30;;;;;;;3.80;2.65;;;;;;;6.99;100.00;99024.16;5053439;28;20217;-76
2021/05/24 04:06:58;;;;;;;5.88;2.90;;;;;;;6.98;100.00;99033.97;5054506;28;20201;-73
2021/05/24 04:09:25;;;;;;;3.92;3.20;;;;;;;7.15;99.62;99032.22;5053900;28;20209;-74
2021/05/24 04:11:51;;;;;;;3.35;3.05;;;;;;;7.12;98.51;99032.38;5054426;28;20224;-72
2021/05/24 04:14:18;;;;;;;3.42;3.10;;;;;;;7.06;98.71;99030.91;5053619;28;20207;-76
2021/05/24 04:16:45;;;;;;;3.45;2.90;;;;;;;6.93;99.23;99030.66;5053851;28;20209;-73
2021/05/24 04:19:11;;;;;;;3.90;3.60;;;;;;;7.05;99.28;99039.84;5053922;28;20217;-75
2021/05/24 04:21:39;;;;;;;3.55;2.80;;;;;;;7.05;98.16;99029.16;5054077;28;20233;-73
2021/05/24 04:24:06;;;;;;;5.43;3.17;;;;;;;7.01;98.90;99038.28;5053711;28;20185;-75
2021/05/24 04:26:32;;;;;;;3.65;3.15;;;;;;;7.15;98.16;99033.09;5053907;28;20280;-73
2021/05/24 04:28:58;;;;;;;4.15;3.60;;;;;;;7.38;96.76;99025.63;5053805;28;20229;-75
2021/05/24 04:31:25;;;;;;;3.00;2.60;;;;;;;7.74;94.79;99036.16;5053716;28;20276;-73
2021/05/24 04:33:51;;;;;;;3.70;3.40;;;;;;;7.98;93.01;99033.03;5053600;28;20624;-73
2021/05/24 04:36:17;;;;;;;2.70;2.50;;;;;;;7.64;93.30;99030.44;5053649;28;20197;-74
2021/05/24 04:38:43;;;;;;;3.60;3.00;;;;;;;7.44;94.75;99019.91;5043433;28;20604;-72
2021/05/24 04:41:10;;;;;;;5.80;2.75;;;;;;;7.47;95.42;99017.09;5053476;28;20276;-75
2021/05/24 04:43:39;;;;;;;3.13;2.75;;;;;;;7.68;94.76;99023.94;5053812;28;20609;-75
2021/05/24 04:46:05;;;;;;;4.82;2.90;;;;;;;7.86;94.07;99019.38;5053605;28;20204;-74
2021/05/24 04:48:34;;;;;;;3.00;2.80;;;;;;;7.79;93.77;99017.13;5053477;28;20220;-74
2021/05/24 04:51:00;;;;;;;3.20;2.90;;;;;;;7.55;94.91;99020.19;5053614;28;20620;-74
2021/05/24 04:53:26;;;;;;;3.72;2.67;;;;;;;7.60;95.19;99014.59;5053523;28;20199;-74
2021/05/24 04:55:52;;;;;;;3.13;2.83;;;;;;;7.73;94.44;99012.97;5053708;28;20197;-72
2021/05/24 04:58:19;;;;;;;3.67;2.50;;;;;;;7.89;93.42;99011.16;5053627;28;20276;-73
2021/05/24 05:00:46;;;;;;;4.78;2.55;;;;;;;8.10;92.32;99010.91;5053531;28;20539;-73
2021/05/24 05:03:12;;;;;;;5.70;3.00;;;;;;;8.34;90.98;99006.81;5053183;28;20284;-74
2021/05/24 05:05:40;;;;;;;3.80;2.83;;;;;;;8.36;90.08;99004.00;5053777;28;20243;-73
2021/05/24 05:08:06;;;;;;;4.45;2.50;;;;;;;8.39;90.21;99009.22;5053623;28;20192;-76
2021/05/24 05:10:33;;;;;;;6.97;2.80;;;;;;;8.41;90.37;99020.75;5053322;28;20253;-75
2021/05/24 05:12:59;;;;;;;3.83;2.70;;;;;;;8.59;89.50;99013.41;5053298;28;20620;-74
2021/05/24 05:15:25;;;;;;;5.57;3.13;;;;;;;8.67;89.08;99011.16;5055510;28;20181;-74
2021/05/24 05:17:51;;;;;;;3.08;2.63;;;;;;;8.80;88.31;99005.06;5057116;28;20334;-75
2021/05/24 05:20:17;;;;;;;2.83;2.60;;;;;;;8.96;88.23;99006.72;5057599;28;20272;-75
2021/05/24 05:22:45;;;;;;;3.10;2.58;;;;;;;9.04;87.63;98997.31;5057518;28;20200;-74
2021/05/24 05:25:12;;;;;;;4.63;2.58;;;;;;;9.07;87.78;98998.00;5056865;28;20211;-73
2021/05/24 05:27:38;;;;;;;2.90;2.70;;;;;;;9.03;87.80;98992.91;5057100;28;20541;-73
2021/05/24 05:30:06;;;;;;;4.95;2.60;;;;;;;9.03;87.87;98983.03;5056669;28;20210;-74
2021/05/24 05:32:32;;;;;;;6.55;3.03;;;;;;;9.39;86.01;98992.44;5056864;28;20204;-73
2021/05/24 05:34:58;;;;;;;3.30;3.00;;;;;;;9.36;85.43;98995.31;5057269;28;20573;-72
2021/05/24 05:37:24;;;;;;;2.60;2.40;;;;;;;9.40;85.40;98978.91;5057394;28;20288;-75
2021/05/24 05:39:55;;;;;;;5.35;2.42;;;;;;;9.53;84.61;98989.75;5056684;28;20233;-74
2021/05/24 05:42:21;;;;;;;4.72;3.00;;;;;;;9.71;83.93;98973.41;5056619;28;20190;-75
2021/05/24 05:44:48;;;;;;;3.35;2.70;;;;;;;9.97;82.31;98987.84;5056893;28;20697;-74
2021/05/24 05:47:14;;;;;;;4.00;2.72;;;;;;;10.15;80.53;98981.28;5056627;28;20223;-74
2021/05/24 05:49:40;;;;;;;4.07;2.60;;;;;;;10.33;78.82;98978.31;5056618;28;20266;-74
2021/05/24 05:52:07;;;;;;;3.42;2.40;;;;;;;10.53;76.50;98985.91;5056468;28;20305;-74
2021/05/24 05:54:33;;;;;;;2.95;2.05;;;;;;;10.61;75.55;98983.59;5056390;28;20199;-74
2021/05/24 05:57:00;;;;;;;2.58;2.10;;;;;;;10.89;74.44;98980.81;5056647;28;20195;-73
2021/05/24 05:59:26;;;;;;;2.40;2.15;;;;;;;11.03;73.35;98978.03;5056495;28;20282;-73
2021/05/24 06:01:52;;;;;;;3.10;1.98;;;;;;;11.28;71.92;98977.16;5056637;28;20598;-73
2021/05/24 06:04:19;;;;;;;2.38;2.05;;;;;;;11.38;70.73;98966.59;5056531;28;20200;-74
2021/05/24 06:06:45;;;;;;;2.38;2.17;;;;;;;11.43;70.77;98967.97;5056641;28;20612;-74
2021/05/24 06:09:11;;;;;;;3.00;1.92;;;;;;;11.53;70.53;98972.72;5056511;28;20421;-73
2021/05/24 06:11:37;;;;;;;2.47;1.90;;;;;;;11.72;68.80;98978.50;5056124;28;20240;-74
2021/05/24 06:14:04;;;;;;;3.28;2.10;;;;;;;11.82;68.69;98978.69;5056883;28;20182;-74
2021/05/24 06:16:30;;;;;;;3.42;1.90;;;;;;;11.94;68.38;98969.75;5056577;28;20192;-74
2021/05/24 06:18:56;;;;;;;5.55;2.50;;;;;;;12.12;68.31;98974.72;5056900;28;20284;-74
2021/05/24 06:21:23;;;;;;;3.03;1.85;;;;;;;12.15;68.09;98972.69;5056332;28;20643;-73
2021/05/24 06:23:49;;;;;;;2.85;2.30;;;;;;;12.40;67.37;98965.44;5056430;28;20615;-73
2021/05/24 06:26:15;;;;;;;2.38;2.17;;;;;;;12.59;65.79;98976.53;5055523;28;20643;-73
2021/05/24 06:28:41;;;;;;;6.07;2.30;;;;;;;12.66;65.29;98971.53;5056440;28;20322;-74
2021/05/24 06:31:08;;;;;;;2.50;1.80;;;;;;;12.86;64.31;98961.91;5056403;28;20201;-74
2021/05/24 06:33:34;;;;;;;1.83;1.73;;;;;;;12.99;63.83;98961.81;5056478;28;20526;-74
2021/05/24 06:36:00;;;;;;;4.60;2.03;;;;;;;13.18;63.43;98953.09;5056271;28;20292;-74
2021/05/24 06:38:26;;;;;;;4.57;1.48;;;;;;;13.42;62.55;98959.31;5055936;28;20281;-72
2021/05/24 06:40:53;;;;;;;2.22;1.55;;;;;;;13.53;61.84;98955.75;5056046;28;20189;-74
2021/05/24 06:43:20;;;;;;;1.92;1.73;;;;;;;13.72;59.89;98960.50;5056378;28;20553;-74
2021/05/24 06:45:46;;;;;;;3.28;1.80;;;;;;;13.91;59.33;98957.19;5055928;28;20198;-74
2021/05/24 06:48:13;;;;;;;2.50;1.67;;;;;;;13.94;59.45;98951.50;5055862;28;20340;-74
2021/05/24 06:50:39;;;;;;;2.10;1.63;;;;;;;14.01;59.57;98952.72;5055541;28;20208;-74
2021/05/24 06:53:05;;;;;;;3.67;1.92;;;;;;;14.27;58.35;98952.38;5055702;28;20250;-73
2021/05/24 06:55:32;;;;;;;2.58;1.52;;;;;;;14.24;57.74;98955.38;5055524;28;20186;-74
2021/05/24 06:57:58;;;;;;;2.63;1.55;;;;;;;14.45;57.53;98960.81;5054989;28;20247;-74
2021/05/24 07:00:24;;;;;;;2.28;1.52;;;;;;;14.56;56.84;98955.38;5055543;28;20265;-73
2021/05/24 07:02:50;;;;;;;2.97;1.67;;;;;;;14.62;56.81;98959.44;5054877;28;20279;-76
2021/05/24 07:05:17;;;;;;;4.60;2.95;;;;;;;14.74;56.65;98958.38;5055292;28;20202;-75
2021/05/24 07:07:43;;;;;;;5.30;1.63;;;;;;;15.07;55.78;98970.88;5055408;28;20192;-74
2021/05/24 07:10:11;;;;;;;4.72;1.73;;;;;;;14.91;56.07;98967.78;5054855;28;20233;-74
2021/05/24 07:12:38;;;;;;;3.45;1.40;;;;;;;15.14;55.35;98971.22;5055562;28;20672;-75
2021/05/24 07:15:06;;;;;;;1.42;1.33;;;;;;;15.17;54.92;98969.09;5055616;28;20629;-74
2021/05/24 07:17:33;;;;;;;2.85;1.60;;;;;;;15.14;55.18;98972.06;5055063;28;20323;-75
2021/05/24 07:20:00;;;;;;;2.50;1.55;;;;;;;15.16;55.14;98980.94;5054953;28;20202;-75
2021/05/24 07:22:27;;;;;;;4.18;1.65;;;;;;;15.30;55.06;98974.28;5054823;28;20206;-74
2021/05/24 07:24:54;;;;;;;2.28;1.80;;;;;;;15.04;56.04;98973.00;5054550;28;20203;-74
2021/05/24 07:27:20;;;;;;;3.20;1.95;;;;;;;15.13;56.14;98964.94;5054593;28;20688;-74
2021/05/24 07:29:46;;;;;;;2.22;1.40;;;;;;;15.26;55.40;98974.69;5054671;28;20213;-73
2021/05/24 07:32:12;;;;;;;2.03;1.73;;;;;;;15.31;55.49;98972.44;5054901;28;20213;-73
2021/05/24 07:34:39;;;;;;;1.95;1.60;;;;;;;15.36;55.26;98964.78;5054633;28;20216;-75
2021/05/24 07:37:05;;;;;;;3.33;1.40;;;;;;;15.40;54.44;98966.22;5054644;28;20188;-75
2021/05/24 07:39:33;;;;;;;2.75;1.98;;;;;;;15.57;54.39;98965.56;5054145;28;20234;-74
2021/05/24 07:42:01;;;;;;;3.10;1.88;;;;;;;15.79;53.99;98961.00;5054831;28;20195;-76
2021/05/24 07:44:27;;;;;;;2.55;1.65;;;;;;;16.02;53.44;98969.75;5054670;28;20196;-74
2021/05/24 07:46:53;;;;;;;1.58;1.33;;;;;;;16.26;52.54;98964.81;5054858;28;20208;-76
2021/05/24 07:49:21;;;;;;;3.45;1.73;;;;;;;16.34;51.99;98961.38;5054418;28;20215;-74
2021/05/24 07:51:47;;;;;;;1.65;1.30;;;;;;;16.13;51.65;98960.66;5054615;28;20605;-74
2021/05/24 07:54:13;;;;;;;3.72;1.80;;;;;;;16.29;51.55;98965.53;5054266;28;20280;-75
2021/05/24 07:56:40;;;;;;;1.42;1.23;;;;;;;16.05;50.81;98961.31;5053830;28;20291;-74
2021/05/24 07:59:06;;;;;;;1.33;1.10;;;;;;;16.42;49.93;98950.69;5054279;28;20178;-75
2021/05/24 08:01:32;;;;;;;3.15;1.33;;;;;;;16.61;49.28;98952.53;5054297;28;20291;-75
2021/05/24 08:03:58;;;;;;;2.80;1.38;;;;;;;16.58;49.24;98958.25;5054004;28;20620;-72
2021/05/24 08:06:24;;;;;;;2.15;1.20;;;;;;;16.49;48.59;98944.69;5053891;28;20360;-74
2021/05/24 08:08:51;;;;;;;2.53;1.17;;;;;;;16.80;47.50;98949.00;5053581;28;20207;-74
2021/05/24 08:11:17;;;;;;;4.20;1.38;;;;;;;16.48;48.55;98943.78;5054374;28;20189;-73
2021/05/24 08:13:44;;;;;;;1.55;1.10;;;;;;;16.60;47.79;98934.50;5054362;28;20204;-73
2021/05/24 08:16:12;;;;;;;2.90;1.55;;;;;;;16.92;47.31;98930.66;5054002;28;20611;-74
2021/05/24 08:18:39;;;;;;;1.75;1.10;;;;;;;16.95;47.41;98932.22;5054089;28;20192;-74
2021/05/24 08:21:07;;;;;;;2.17;1.30;;;;;;;17.04;47.49;98936.78;5053922;28;20287;-74
2021/05/24 08:23:33;;;;;;;2.63;1.30;;;;;;;16.81;47.53;98923.50;5054197;28;20184;-73
2021/05/24 08:26:00;;;;;;;1.90;1.35;;;;;;;17.16;47.57;98924.69;5053946;28;20646;-73
2021/05/24 08:28:27;;;;;;;1.98;1.25;;;;;;;17.10;47.28;98917.16;5053950;28;20208;-75
2021/05/24 08:30:54;;;;;;;3.10;2.05;;;;;;;17.02;47.27;98911.59;5053718;28;20642;-74
2021/05/24 08:33:21;;;;;;;3.28;1.40;;;;;;;16.87;47.54;98900.31;5053680;28;20292;-73
2021/05/24 08:35:48;;;;;;;5.18;1.50;;;;;;;16.82;48.03;98900.78;5053530;28;20242;-75
2021/05/24 08:38:14;;;;;;;1.92;1.52;;;;;;;17.06;47.20;98905.69;5053389;28;20618;-75
2021/05/24 08:40:41;;;;;;;2.28;1.30;;;;;;;17.15;47.22;98900.41;5053189;28;20312;-75
2021/05/24 08:43:07;;;;;;;2.53;1.55;;;;;;;17.00;48.37;98892.69;5053664;28;20513;-74
2021/05/24 08:45:37;;;;;;;2.58;1.30;;;;;;;17.32;47.37;98887.84;5053226;28;20239;-75
2021/05/24 08:48:05;;;;;;;2.97;1.23;;;;;;;17.46;47.31;98881.94;5053736;28;20276;-74
2021/05/24 08:50:31;;;;;;;2.05;1.10;;;;;;;17.37;47.69;98888.28;5053059;28;20219;-72
2021/05/24 08:52:57;;;;;;;2.75;1.10;;;;;;;17.58;46.82;98880.72;5053764;28;20211;-75
2021/05/24 08:55:24;;;;;;;4.82;4.32;;;;;;;17.81;46.80;98874.88;5053264;28;20283;-75
2021/05/24 08:57:50;;;;;;;2.40;1.42;;;;;;;17.93;46.52;98873.66;5053544;28;20629;-72
2021/05/24 09:00:19;;;;;;;6.90;1.88;;;;;;;18.03;46.31;98869.00;5053609;28;20192;-75
2021/05/24 09:02:47;;;;;;;2.20;1.40;;;;;;;18.13;46.53;98871.66;5052939;28;20612;-75
2021/05/24 09:05:15;;;;;;;2.78;1.45;;;;;;;18.10;47.05;98855.63;5052969;28;20205;-74
2021/05/24 09:07:50;;;;;;;2.83;1.85;;;;;;;18.03;47.51;98860.84;5053746;28;20280;-75
2021/05/24 09:10:17;;;;;;;3.22;1.30;;;;;;;18.06;47.64;98854.22;5053063;28;20212;-74
2021/05/24 09:12:43;;;;;;;2.15;1.40;;;;;;;18.44;47.02;98849.47;5053702;28;20197;-73
2021/05/24 09:15:13;;;;;;;6.53;3.60;;;;;;;18.51;46.07;98854.13;5053176;28;20387;-74
2021/05/24 09:17:45;;;;;;;4.15;2.03;;;;;;;18.58;45.89;98851.63;5053029;28;20197;-74
2021/05/24 09:20:34;;;;;;;1.65;1.10;;;;;;;18.45;46.03;98838.41;5053217;28;20202;-74
2021/05/24 09:23:12;;;;;;;3.55;2.00;;;;;;;18.36;46.49;98844.81;5053378;28;20320;-73
2021/05/24 09:25:57;;;;;;;3.95;1.20;;;;;;;18.74;45.34;98835.38;5052984;28;20188;-73
2021/05/24 09:28:38;;;;;;;2.83;1.30;;;;;;;18.91;44.52;98838.25;5052942;28;20186;-75
2021/05/24 09:31:09;;;;;;;2.50;1.05;;;;;;;19.17;42.88;98835.50;5052902;28;20178;-75
2021/05/24 09:33:36;;;;;;;2.60;1.15;;;;;;;18.90;42.50;98834.69;5053181;28;20634;-75
2021/05/24 09:36:04;;;;;;;1.20;1.00;;;;;;;18.60;43.35;98832.38;5053250;28;20735;-74
2021/05/24 09:38:35;;;;;;;1.95;1.13;;;;;;;18.34;44.05;98823.16;5052967;28;20196;-72
2021/05/24 09:41:02;;;;;;;2.35;1.00;;;;;;;18.46;44.29;98831.09;5052895;28;20765;-73
2021/05/24 09:43:34;;;;;;;5.80;1.63;;;;;;;18.79;44.28;98826.78;5053113;28;20547;-74
2021/05/24 09:46:10;;;;;;;2.00;1.33;;;;;;;18.95;44.06;98821.41;5053027;28;20179;-74
2021/05/24 09:48:36;;;;;;;3.38;1.95;;;;;;;19.14;43.83;98827.63;5053029;28;20197;-74
2021/05/24 09:51:05;;;;;;;3.78;1.25;;;;;;;19.52;43.18;98825.44;5052950;28;20560;-74
2021/05/24 09:53:31;;;;;;;3.45;1.30;;;;;;;20.02;42.84;98824.56;5053043;28;20677;-74
2021/05/24 09:56:04;;;;;;;5.72;2.35;;;;;;;20.26;40.61;98814.66;5052851;28;20282;-74
2021/05/24 09:58:30;;;;;;;3.38;1.80;;;;;;;20.64;40.59;98817.75;5053358;28;20189;-73
2021/05/24 10:01:12;;;;;;;5.13;2.22;;;;;;;20.95;40.34;98816.00;5052905;28;20282;-72
2021/05/24 10:03:39;;;;;;;1.93;1.20;;;;;;;20.53;39.66;98816.19;5056532;28;20234;-75
2021/05/24 10:06:06;;;;;;;3.47;1.40;;;;;;;20.24;39.74;98820.31;5056294;28;20473;-74
2021/05/24 10:08:33;;;;;;;7.57;1.40;;;;;;;20.56;39.48;98821.34;5056159;28;20865;-74
2021/05/24 10:11:00;;;;;;;2.67;1.33;;;;;;;20.50;39.53;98820.13;5056191;28;20817;-73
2021/05/24 10:13:28;;;;;;;2.33;1.33;;;;;;;20.79;39.73;98816.88;5056520;28;20424;-73
2021/05/24 10:16:00;;;;;;;5.20;2.27;;;;;;;20.78;39.84;98820.66;5056003;28;20454;-74
2021/05/24 10:18:26;;;;;;;4.40;1.37;;;;;;;20.47;39.95;98805.97;5055934;28;20430;-74
2021/05/24 10:20:53;;;;;;;1.63;1.00;;;;;;;20.64;40.83;98801.34;5055809;28;20430;-75
2021/05/24 10:23:21;;;;;;;3.10;1.20;;;;;;;20.39;40.68;98806.81;5056162;28;20497;-74
2021/05/24 10:25:49;;;;;;;3.97;1.02;;;;;;;20.39;40.61;98815.00;5056327;28;20463;-73
2021/05/24 10:28:16;;;;;;;2.27;1.70;;;;;;;20.54;40.60;98799.63;5056182;28;20599;-74
2021/05/24 10:30:43;;;;;;;3.00;1.40;;;;;;;20.81;40.77;98787.47;5055494;28;20506;-73
2021/05/24 10:33:12;;;;;;;3.57;1.40;;;;;;;21.10;39.72;98796.97;5056156;28;20486;-75
2021/05/24 10:35:40;;;;;;;2.50;1.40;;;;;;;21.25;39.67;98783.38;5056345;28;20474;-73
2021/05/24 10:38:31;;;;;;;3.07;1.10;;;;;;;21.22;39.93;98778.28;5055741;28;20438;-74
2021/05/24 10:41:10;;;;;;;2.73;1.10;;;;;;;21.03;39.67;98780.41;5055797;28;20764;-73
2021/05/24 10:43:41;;;;;;;1.57;0.90;;;;;;;20.87;40.05;98772.25;5055456;28;20438;-75
2021/05/24 10:46:35;;;;;;;4.00;1.60;;;;;;;20.53;40.72;98778.78;5055746;28;20428;-73
2021/05/24 10:49:05;;;;;;;1.90;1.40;;;;;;;20.26;41.46;98765.47;5056323;28;20447;-73
2021/05/24 10:52:18;;;;;;;2.40;1.40;;;;;;;19.55;42.86;98760.41;5056063;28;20887;-74
2021/05/24 10:54:45;;;;;;;3.40;1.45;;;;;;;19.45;42.94;98781.56;5013672;28;20464;-74
2021/05/24 10:57:16;;;;;;;4.30;1.60;;;;;;;19.70;42.33;98774.31;5050714;28;20650;-72
2021/05/24 10:59:59;;;;;;;2.47;1.38;;;;;;;19.79;42.72;98764.25;5055775;28;20187;-73
2021/05/24 11:02:38;;;;;;;1.73;1.40;;;;;;;19.20;43.39;98772.44;5055469;28;20546;-74
2021/05/24 11:05:25;;;;;;;4.00;1.52;;;;;;;18.24;46.32;98791.56;5055376;28;20224;-73
2021/05/24 11:07:55;;;;;;;2.40;1.60;;;;;;;17.51;48.76;98787.09;5053673;28;20594;-74
2021/05/24 11:10:30;;;;;;;4.43;2.25;;;;;;;16.69;50.91;98777.88;5054957;28;20261;-74
2021/05/24 11:13:17;;;;;;;2.30;1.85;;;;;;;16.28;52.55;98796.28;5055233;28;20691;-73
2021/05/24 11:15:45;;;;;;;3.13;1.42;;;;;;;16.29;53.12;98795.25;5054719;28;20204;-75
2021/05/24 11:18:21;;;;;;;3.97;1.50;;;;;;;15.99;54.07;98810.72;5055277;28;20200;-74
2021/05/24 11:20:50;;;;;;;2.35;1.60;;;;;;;15.85;55.10;98816.53;5055226;28;20657;-74
2021/05/24 11:23:29;;;;;;;3.90;1.70;;;;;;;15.77;55.73;98830.00;5055050;28;20228;-74
2021/05/24 11:26:29;;;;;;;2.72;1.30;;;;;;;15.20;58.64;98830.53;5054852;28;20187;-74
2021/05/24 11:28:59;;;;;;;2.80;2.13;;;;;;;15.00;63.02;98834.16;5054735;28;20187;-72
2021/05/24 11:31:31;;;;;;;11.07;3.20;;;;;;;13.79;78.30;98837.28;5054481;28;20199;-73
2021/05/24 11:33:58;;;;;;;2.40;1.70;;;;;;;12.80;86.75;98832.69;5055184;28;20222;-74
2021/05/24 11:36:50;;;;;;;2.70;2.00;;;;;;;12.67;94.16;98839.09;5054905;28;20317;-71
2021/05/24 11:39:19;;;;;;;3.00;2.08;;;;;;;12.65;92.61;98842.91;5054302;28;20232;-74
2021/05/24 11:41:51;;;;;;;4.55;2.28;;;;;;;12.67;90.82;98840.94;5054755;28;20198;-75